createdAt,value
2018-12-27T00:01:59.907Z,-3.30
2018-12-27T00:04:48.763Z,-3.30
2018-12-27T00:07:37.021Z,-3.30
2018-12-27T00:10:25.239Z,-3.30
2018-12-27T00:13:13.486Z,-3.30
2018-12-27T00:16:01.711Z,-3.30
2018-12-27T00:18:49.971Z,-3.30
2018-12-27T00:21:19.407Z,-3.40
2018-12-27T00:24:07.655Z,-3.40
2018-12-27T00:26:48.633Z,-3.40
2018-12-27T00:29:49.027Z,-3.40
2018-12-27T00:32:30.608Z,-3.40
2018-12-27T00:35:12.222Z,-3.50
2018-12-27T00:37:53.019Z,-3.50
2018-12-27T00:40:32.647Z,-3.50
2018-12-27T00:43:21.447Z,-3.50
2018-12-27T00:46:09.951Z,-3.50
2018-12-27T00:48:58.607Z,-3.50
2018-12-27T00:51:46.826Z,-3.60
2018-12-27T00:54:35.350Z,-3.60
2018-12-27T00:57:23.680Z,-3.60
2018-12-27T01:00:11.939Z,-3.60
2018-12-27T01:03:00.200Z,-3.60
2018-12-27T01:05:29.942Z,-3.60
2018-12-27T01:08:18.526Z,-3.60
2018-12-27T01:11:07.174Z,-3.60
2018-12-27T01:13:55.847Z,-3.60
2018-12-27T01:16:44.063Z,-3.60
2018-12-27T01:19:32.319Z,-3.60
2018-12-27T01:22:21.179Z,-3.60
2018-12-27T01:25:02.295Z,-3.60
2018-12-27T01:27:43.387Z,-3.60
2018-12-27T01:30:24.274Z,-3.60
2018-12-27T01:33:05.564Z,-3.60
2018-12-27T01:35:35.003Z,-3.60
2018-12-27T01:38:23.751Z,-3.60
2018-12-27T01:41:12.059Z,-3.70
2018-12-27T01:43:41.504Z,-3.70
2018-12-27T01:49:37.053Z,-3.70
2018-12-27T01:52:25.604Z,-3.70
2018-12-27T01:55:14.203Z,-3.70
2018-12-27T01:58:02.495Z,-3.80
2018-12-27T02:00:50.831Z,-3.80
2018-12-27T02:06:27.444Z,-3.80
2018-12-27T02:09:15.699Z,-3.80
2018-12-27T02:12:03.936Z,-3.80
2018-12-27T02:14:52.331Z,-3.90
2018-12-27T02:24:31.996Z,-4.00
2018-12-27T02:29:54.418Z,-4.00
2018-12-27T02:32:35.180Z,-4.00
2018-12-27T02:35:16.310Z,-4.00
2018-12-27T02:41:16.119Z,-4.00
2018-12-27T02:43:45.255Z,-4.00
2018-12-27T02:46:14.432Z,-4.00
2018-12-27T02:49:02.923Z,-4.00
2018-12-27T02:51:51.181Z,-4.00
2018-12-27T02:54:39.789Z,-4.00
2018-12-27T02:57:28.028Z,-4.00
2018-12-27T03:00:16.359Z,-4.00
2018-12-27T03:03:04.670Z,-4.10
2018-12-27T03:05:53.208Z,-4.10
2018-12-27T03:08:41.751Z,-4.20
2018-12-27T03:11:30.012Z,-4.20
2018-12-27T03:14:10.718Z,-4.20
2018-12-27T03:16:51.839Z,-4.20
2018-12-27T03:19:32.927Z,-4.20
2018-12-27T03:22:13.813Z,-4.20
2018-12-27T03:24:54.292Z,-4.20
2018-12-27T03:27:34.885Z,-4.10
2018-12-27T03:30:16.304Z,-4.10
2018-12-27T03:32:56.937Z,-4.10
2018-12-27T03:35:38.063Z,-4.10
2018-12-27T03:38:19.297Z,-4.10
2018-12-27T03:41:00.641Z,-4.10
2018-12-27T03:43:41.455Z,-4.10
2018-12-27T03:46:22.863Z,-4.10
2018-12-27T03:48:52.259Z,-4.10
2018-12-27T03:51:40.511Z,-4.10
2018-12-27T03:54:29.131Z,-4.20
2018-12-27T03:57:16.271Z,-4.10
2018-12-27T04:00:04.855Z,-4.10
2018-12-27T04:02:53.380Z,-4.10
2018-12-27T04:05:42.045Z,-4.10
2018-12-27T04:08:11.447Z,-4.20
2018-12-27T04:11:36.183Z,-4.10
2018-12-27T04:14:17.511Z,-4.20
2018-12-27T04:16:58.072Z,-4.20
2018-12-27T04:19:27.260Z,-4.20
2018-12-27T04:22:15.507Z,-4.20
2018-12-27T04:24:44.626Z,-4.20
2018-12-27T04:27:32.884Z,-4.20
2018-12-27T04:30:21.545Z,-4.30
2018-12-27T04:37:00.165Z,-4.30
2018-12-27T04:40:25.219Z,-4.30
2018-12-27T04:43:14.018Z,-4.30
2018-12-27T04:46:02.343Z,-4.30
2018-12-27T04:48:50.640Z,-4.30
2018-12-27T04:51:38.895Z,-4.30
2018-12-27T04:54:27.382Z,-4.30
2018-12-27T04:57:15.699Z,-4.30
2018-12-27T05:00:04.216Z,-4.30
2018-12-27T05:02:33.938Z,-4.40
2018-12-27T05:05:22.792Z,-4.40
2018-12-27T05:07:51.951Z,-4.40
2018-12-27T05:10:21.343Z,-4.40
2018-12-27T05:13:09.679Z,-4.40
2018-12-27T05:15:39.067Z,-4.40
2018-12-27T05:18:28.224Z,-4.40
2018-12-27T05:21:16.481Z,-4.40
2018-12-27T05:24:04.698Z,-4.50
2018-12-27T05:26:53.290Z,-4.50
2018-12-27T05:29:41.847Z,-4.50
2018-12-27T05:32:30.099Z,-4.60
2018-12-27T05:35:18.343Z,-4.60
2018-12-27T05:38:06.644Z,-4.60
2018-12-27T05:40:55.459Z,-4.60
2018-12-27T05:43:43.787Z,-4.70
2018-12-27T05:46:12.959Z,-4.70
2018-12-27T05:48:42.351Z,-4.70
2018-12-27T05:51:30.887Z,-4.70
2018-12-27T05:54:19.111Z,-4.70
2018-12-27T05:57:42.591Z,-4.70
2018-12-27T06:00:30.807Z,-4.70
2018-12-27T06:03:11.668Z,-4.70
2018-12-27T06:05:58.332Z,-4.70
2018-12-27T06:11:34.391Z,-4.70
2018-12-27T06:14:15.386Z,-4.70
2018-12-27T06:20:03.398Z,-4.70
2018-12-27T06:29:11.885Z,-4.70
2018-12-27T06:38:05.591Z,-4.60
2018-12-27T06:40:46.879Z,-4.60
2018-12-27T06:43:27.827Z,-4.60
2018-12-27T06:48:51.808Z,-4.50
2018-12-27T06:51:32.960Z,-4.50
2018-12-27T06:54:13.995Z,-4.50
2018-12-27T06:56:43.389Z,-4.60
2018-12-27T06:59:31.731Z,-4.50
2018-12-27T07:02:19.999Z,-4.50
2018-12-27T07:05:08.576Z,-4.50
2018-12-27T07:07:57.027Z,-4.50
2018-12-27T07:10:45.327Z,-4.50
2018-12-27T07:13:33.872Z,-4.50
2018-12-27T07:16:22.086Z,-4.50
2018-12-27T07:19:10.888Z,-4.50
2018-12-27T07:21:59.771Z,-4.60
2018-12-27T07:24:48.039Z,-4.60
2018-12-27T07:27:36.303Z,-4.60
2018-12-27T07:39:49.072Z,-4.50
2018-12-27T07:42:49.046Z,-4.50
2018-12-27T07:45:29.823Z,-4.50
2018-12-27T07:48:10.791Z,-4.50
2018-12-27T07:50:52.061Z,-4.40
2018-12-27T07:53:32.675Z,-4.40
2018-12-27T07:56:17.847Z,-4.40
2018-12-27T07:58:58.745Z,-4.40
2018-12-27T08:01:39.876Z,-4.40
2018-12-27T08:04:20.779Z,-4.40
2018-12-27T08:07:01.576Z,-4.30
2018-12-27T08:09:42.823Z,-4.30
2018-12-27T08:12:23.868Z,-4.20
2018-12-27T08:14:53.018Z,-4.20
2018-12-27T08:17:34.288Z,-4.20
2018-12-27T08:20:03.789Z,-4.10
2018-12-27T08:22:52.002Z,-4.00
2018-12-27T08:25:40.279Z,-3.90
2018-12-27T08:31:40.879Z,-3.60
2018-12-27T08:34:29.680Z,-3.50
2018-12-27T08:37:17.904Z,-3.40
2018-12-27T08:40:06.168Z,-3.30
2018-12-27T08:42:54.831Z,-3.20
2018-12-27T08:45:43.383Z,-3.10
2018-12-27T08:48:31.647Z,-2.90
2018-12-27T08:51:19.866Z,-2.80
2018-12-27T08:54:08.397Z,-2.80
2018-12-27T08:56:56.618Z,-2.70
2018-12-27T09:02:38.655Z,-2.50
2018-12-27T09:08:02.261Z,-2.30
2018-12-27T09:10:50.847Z,-2.20
2018-12-27T09:13:39.102Z,-2.20
2018-12-27T09:16:27.319Z,-2.10
2018-12-27T09:19:08.046Z,-2.00
2018-12-27T09:21:49.134Z,-2.00
2018-12-27T09:27:24.187Z,-1.80
2018-12-27T09:30:12.726Z,-1.80
2018-12-27T09:33:01.028Z,-1.70
2018-12-27T09:35:49.292Z,-1.70
2018-12-27T09:38:37.512Z,-1.60
2018-12-27T09:41:26.084Z,-1.60
2018-12-27T09:44:14.349Z,-1.40
2018-12-27T09:50:46.833Z,-0.80
2018-12-27T09:53:35.074Z,-0.70
2018-12-27T09:58:58.600Z,-0.70
2018-12-27T10:01:46.827Z,-0.80
2018-12-27T10:04:27.869Z,-0.80
2018-12-27T10:10:14.703Z,-0.70
2018-12-27T10:12:44.093Z,-0.70
2018-12-27T10:15:32.360Z,-0.60
2018-12-27T10:18:20.859Z,-0.60
2018-12-27T10:21:09.123Z,-0.60
2018-12-27T10:23:39.072Z,-0.50
2018-12-27T10:26:27.855Z,-0.50
2018-12-27T10:35:57.752Z,-0.40
2018-12-27T10:38:46.247Z,-0.30
2018-12-27T10:41:34.645Z,-0.30
2018-12-27T10:44:22.943Z,-0.20
2018-12-27T10:47:11.231Z,-0.20
2018-12-27T10:49:59.567Z,-0.10
2018-12-27T10:52:47.786Z,0.00
2018-12-27T10:55:36.217Z,0.10
2018-12-27T10:58:24.463Z,0.20
2018-12-27T11:00:53.879Z,0.40
2018-12-27T11:03:30.260Z,0.70
2018-12-27T11:06:06.256Z,0.90
2018-12-27T11:08:47.454Z,1.00
2018-12-27T11:11:28.247Z,1.10
2018-12-27T11:14:09.151Z,1.10
2018-12-27T11:16:49.946Z,1.20
2018-12-27T11:19:30.955Z,1.30
2018-12-27T11:22:11.675Z,1.40
2018-12-27T11:24:53.051Z,1.50
2018-12-27T11:27:34.376Z,1.60
2018-12-27T11:30:15.384Z,1.60
2018-12-27T11:32:56.458Z,1.70
2018-12-27T11:35:37.711Z,1.80
2018-12-27T11:41:34.687Z,1.90
2018-12-27T11:44:04.350Z,1.90
2018-12-27T11:46:52.603Z,2.00
2018-12-27T11:49:40.819Z,2.10
2018-12-27T11:52:29.068Z,2.10
2018-12-27T11:55:17.615Z,2.20
2018-12-27T11:58:05.881Z,2.30
2018-12-27T12:00:54.730Z,2.30
2018-12-27T12:03:24.387Z,2.30
2018-12-27T12:06:12.634Z,2.30
2018-12-27T12:11:49.702Z,2.10
2018-12-27T12:14:37.918Z,2.00
2018-12-27T12:17:44.203Z,1.90
2018-12-27T12:20:32.740Z,1.80
2018-12-27T12:23:21.030Z,1.70
2018-12-27T12:26:09.555Z,1.70
2018-12-27T12:28:57.778Z,1.60
2018-12-27T12:32:04.091Z,1.60
2018-12-27T12:37:28.687Z,1.60
2018-12-27T12:40:17.262Z,1.50
2018-12-27T12:45:54.276Z,1.30
2018-12-27T12:48:42.766Z,1.20
2018-12-27T12:51:31.351Z,1.10
2018-12-27T12:54:19.857Z,1.10
2018-12-27T12:57:08.099Z,1.10
2018-12-27T12:59:56.619Z,1.00
2018-12-27T13:02:44.918Z,1.00
2018-12-27T13:05:14.574Z,1.00
2018-12-27T13:08:03.098Z,1.10
2018-12-27T13:10:51.315Z,1.10
2018-12-27T13:13:39.566Z,1.10
2018-12-27T13:16:27.856Z,1.10
2018-12-27T13:19:16.427Z,1.10
2018-12-27T13:22:04.916Z,1.20
2018-12-27T13:24:53.439Z,1.40
2018-12-27T13:27:41.681Z,1.40
2018-12-27T13:30:29.939Z,1.40
2018-12-27T13:33:18.191Z,1.50
2018-12-27T13:36:43.219Z,1.50
2018-12-27T13:39:32.141Z,1.50
2018-12-27T13:42:20.452Z,1.50
2018-12-27T13:45:09.263Z,1.50
2018-12-27T13:51:21.347Z,1.40
2018-12-27T13:54:09.720Z,1.30
2018-12-27T13:56:57.935Z,1.30
2018-12-27T13:59:46.196Z,1.30
2018-12-27T14:02:34.432Z,1.30
2018-12-27T14:05:15.539Z,1.30
2018-12-27T14:07:56.168Z,1.30
2018-12-27T14:10:36.979Z,1.30
2018-12-27T14:13:17.740Z,1.30
2018-12-27T14:15:58.588Z,1.20
2018-12-27T14:18:58.434Z,1.20
2018-12-27T14:21:37.952Z,1.20
2018-12-27T14:24:26.610Z,1.10
2018-12-27T14:27:14.864Z,1.10
2018-12-27T14:30:03.207Z,1.10
2018-12-27T14:32:51.454Z,1.10
2018-12-27T14:35:39.989Z,1.10
2018-12-27T14:38:28.486Z,1.00
2018-12-27T14:41:17.406Z,1.00
2018-12-27T14:44:05.659Z,1.00
2018-12-27T14:46:54.214Z,1.00
2018-12-27T14:49:35.178Z,1.00
2018-12-27T14:52:16.036Z,1.00
2018-12-27T14:54:56.759Z,1.00
2018-12-27T14:57:37.271Z,1.10
2018-12-27T15:00:19.043Z,1.20
2018-12-27T15:03:00.256Z,1.20
2018-12-27T15:05:41.447Z,1.20
2018-12-27T15:08:22.798Z,1.30
2018-12-27T15:11:03.965Z,1.30
2018-12-27T15:13:33.375Z,1.30
2018-12-27T15:16:02.585Z,1.40
2018-12-27T15:18:50.920Z,1.50
2018-12-27T15:21:39.223Z,1.50
2018-12-27T15:24:08.639Z,1.50
2018-12-27T15:26:38.027Z,1.40
2018-12-27T15:29:26.556Z,1.30
2018-12-27T15:31:56.211Z,1.30
2018-12-27T15:34:44.463Z,1.20
2018-12-27T15:37:32.682Z,1.10
2018-12-27T15:40:20.995Z,1.10
2018-12-27T15:46:02.947Z,1.00
2018-12-27T15:48:43.526Z,1.00
2018-12-27T15:51:12.650Z,1.00
2018-12-27T15:54:00.919Z,1.10
2018-12-27T15:56:49.139Z,1.10
2018-12-27T15:59:37.400Z,1.30
2018-12-27T16:02:25.683Z,1.40
2018-12-27T16:05:14.267Z,1.30
2018-12-27T16:08:20.316Z,1.40
2018-12-27T16:10:49.431Z,1.30
2018-12-27T16:13:18.891Z,1.20
2018-12-27T16:16:07.417Z,1.10
2018-12-27T16:18:55.671Z,1.00
2018-12-27T16:21:43.887Z,0.90
2018-12-27T16:24:32.494Z,0.80
2018-12-27T16:27:20.718Z,0.70
2018-12-27T16:30:28.408Z,0.60
2018-12-27T16:33:16.931Z,0.50
2018-12-27T16:36:05.463Z,0.40
2018-12-27T16:38:53.756Z,0.40
2018-12-27T16:41:42.011Z,0.40
2018-12-27T16:44:11.408Z,0.40
2018-12-27T16:46:59.671Z,0.40
2018-12-27T16:49:40.664Z,0.30
2018-12-27T16:52:22.119Z,0.30
2018-12-27T16:54:51.301Z,0.20
2018-12-27T16:57:40.119Z,0.20
2018-12-27T17:04:04.682Z,0.10
2018-12-27T17:06:52.908Z,0.10
2018-12-27T17:09:41.167Z,0.00
2018-12-27T17:15:18.192Z,-0.10
2018-12-27T17:18:06.455Z,-0.10
2018-12-27T17:23:43.179Z,-0.20
2018-12-27T17:26:31.795Z,-0.20
2018-12-27T17:29:20.064Z,-0.20
2018-12-27T17:32:44.820Z,-0.30
2018-12-27T17:35:33.352Z,-0.30
2018-12-27T17:41:29.215Z,-0.20
2018-12-27T17:44:17.487Z,-0.20
2018-12-27T17:46:46.691Z,-0.30
2018-12-27T17:49:27.303Z,-0.30
2018-12-27T17:54:50.593Z,-0.40
2018-12-27T17:57:29.976Z,-0.50
2018-12-27T18:00:18.566Z,-0.50
2018-12-27T18:03:07.367Z,-0.50
2018-12-27T18:05:36.551Z,-0.60
2018-12-27T18:08:24.941Z,-0.70
2018-12-27T18:11:13.336Z,-0.70
2018-12-27T18:14:01.900Z,-0.70
2018-12-27T18:16:50.162Z,-0.70
2018-12-27T18:19:38.729Z,-0.80
2018-12-27T18:22:07.850Z,-0.80
2018-12-27T18:24:56.460Z,-0.80
2018-12-27T18:27:44.678Z,-0.90
2018-12-27T18:30:32.951Z,-0.90
2018-12-27T18:33:21.189Z,-0.80
2018-12-27T18:36:09.529Z,-0.80
2018-12-27T18:38:57.755Z,-0.80
2018-12-27T18:41:46.280Z,-0.80
2018-12-27T18:44:34.804Z,-0.80
2018-12-27T18:47:04.203Z,-0.90
2018-12-27T18:49:33.603Z,-0.90
2018-12-27T18:52:02.783Z,-0.90
2018-12-27T18:54:51.068Z,-1.00
2018-12-27T18:57:39.366Z,-1.00
2018-12-27T19:00:28.179Z,-1.10
2018-12-27T19:03:16.787Z,-1.00
2018-12-27T19:08:53.309Z,-1.10
2018-12-27T19:12:02.187Z,-1.10
2018-12-27T19:14:31.599Z,-1.10
2018-12-27T19:17:21.999Z,-1.10
2018-12-27T19:20:10.545Z,-1.20
2018-12-27T19:23:18.114Z,-1.10
2018-12-27T19:26:06.460Z,-1.20
2018-12-27T19:28:35.943Z,-1.20
2018-12-27T19:31:24.203Z,-1.20
2018-12-27T19:34:12.704Z,-1.20
2018-12-27T19:37:01.300Z,-1.20
2018-12-27T19:39:49.525Z,-1.20
2018-12-27T19:42:38.163Z,-1.20
2018-12-27T19:48:20.498Z,-1.20
2018-12-27T19:51:20.507Z,-1.20
2018-12-27T19:57:17.119Z,-1.20
2018-12-27T19:59:57.651Z,-1.20
2018-12-27T20:02:38.466Z,-1.30
2018-12-27T20:05:19.428Z,-1.30
2018-12-27T20:08:00.908Z,-1.30
2018-12-27T20:10:41.672Z,-1.30
2018-12-27T20:13:22.215Z,-1.20
2018-12-27T20:19:08.379Z,-1.20
2018-12-27T20:21:49.600Z,-1.20
2018-12-27T20:24:30.435Z,-1.20
2018-12-27T20:26:59.599Z,-1.10
2018-12-27T20:32:53.948Z,-1.10
2018-12-27T20:39:16.368Z,-1.10
2018-12-27T20:42:04.641Z,-1.10
2018-12-27T20:44:53.407Z,-1.10
2018-12-27T20:47:33.987Z,-1.20
2018-12-27T20:53:20.740Z,-1.10
2018-12-27T20:56:09.051Z,-1.10
2018-12-27T20:58:57.602Z,-1.10
2018-12-27T21:01:46.131Z,-1.10
2018-12-27T21:04:34.663Z,-1.10
2018-12-27T21:07:23.187Z,-1.10
2018-12-27T21:10:11.484Z,-1.10
2018-12-27T21:12:59.838Z,-1.10
2018-12-27T21:19:29.512Z,-1.10
2018-12-27T21:25:11.487Z,-1.10
2018-12-27T21:27:59.787Z,-1.10
2018-12-27T21:30:48.017Z,-1.20
2018-12-27T21:33:17.358Z,-1.20
2018-12-27T21:36:06.159Z,-1.20
2018-12-27T21:39:13.724Z,-1.20
2018-12-27T21:42:02.011Z,-1.20
2018-12-27T21:44:50.234Z,-1.20
2018-12-27T21:47:38.783Z,-1.30
2018-12-27T21:50:18.556Z,-1.30
2018-12-27T21:53:06.825Z,-1.30
2018-12-27T21:55:55.119Z,-1.30
2018-12-27T21:58:43.651Z,-1.30
2018-12-27T22:01:32.143Z,-1.30
2018-12-27T22:06:55.408Z,-1.40
2018-12-27T22:09:43.984Z,-1.40
2018-12-27T22:12:32.548Z,-1.40
2018-12-27T22:15:21.160Z,-1.40
2018-12-27T22:18:09.482Z,-1.40
2018-12-27T22:20:57.975Z,-1.40
2018-12-27T22:23:46.595Z,-1.40
2018-12-27T22:29:42.488Z,-1.40
2018-12-27T22:32:30.751Z,-1.30
2018-12-27T22:35:18.970Z,-1.40
2018-12-27T22:38:26.639Z,-1.40
2018-12-27T22:41:15.207Z,-1.40
2018-12-27T22:44:03.507Z,-1.40
2018-12-27T22:46:51.816Z,-1.40
2018-12-27T22:49:32.719Z,-1.40
2018-12-27T22:52:13.752Z,-1.40
2018-12-27T22:54:54.368Z,-1.40
2018-12-27T22:57:35.363Z,-1.50
2018-12-27T23:00:17.927Z,-1.50
2018-12-27T23:03:06.191Z,-1.40
2018-12-27T23:05:54.415Z,-1.30
2018-12-27T23:08:43.255Z,-1.30
2018-12-27T23:11:13.894Z,-1.30
2018-12-27T23:13:43.327Z,-1.30
2018-12-27T23:16:31.847Z,-1.40
2018-12-27T23:22:14.835Z,-1.40
2018-12-27T23:25:03.088Z,-1.40
2018-12-27T23:27:51.352Z,-1.40
2018-12-27T23:30:39.847Z,-1.40
2018-12-27T23:33:09.606Z,-1.40
2018-12-27T23:35:58.481Z,-1.40
2018-12-27T23:38:50.220Z,-1.40
2018-12-27T23:41:37.027Z,-1.40
2018-12-27T23:44:25.643Z,-1.40
2018-12-27T23:47:33.144Z,-1.40
2018-12-27T23:50:14.168Z,-1.40
2018-12-27T23:52:55.039Z,-1.40
2018-12-27T23:55:36.240Z,-1.50
2018-12-27T23:58:16.799Z,-1.50
